createdAt,value
2023-03-12T12:32:52.599Z,21.19
2023-03-12T12:44:39.587Z,17.36
2023-03-12T12:45:49.154Z,16.66
2023-03-12T12:46:42.499Z,15.95
2023-03-12T12:47:43.358Z,15.23
2023-03-12T12:48:44.191Z,14.66
2023-03-12T12:49:45.094Z,14.27
2023-03-12T12:50:45.938Z,13.98
2023-03-12T12:51:46.792Z,13.76
2023-03-12T12:52:47.612Z,13.51
2023-03-12T12:53:48.455Z,13.24
2023-03-12T12:54:49.312Z,12.96
2023-03-12T12:55:50.118Z,12.73
2023-03-12T12:56:50.977Z,12.52
2023-03-12T12:57:51.816Z,12.40
2023-03-12T12:58:52.656Z,12.25
2023-03-12T12:59:53.477Z,12.15
2023-03-12T13:00:54.360Z,12.01
2023-03-12T13:01:55.214Z,11.94
2023-03-12T13:02:56.036Z,11.82
2023-03-12T13:03:56.905Z,11.77
2023-03-12T13:04:57.753Z,11.74
2023-03-12T13:05:58.614Z,11.72
2023-03-12T13:06:59.470Z,11.64
2023-03-12T13:08:00.289Z,11.64
2023-03-12T13:09:01.143Z,11.62
2023-03-12T13:10:01.959Z,11.53
2023-03-12T13:11:16.604Z,11.48
2023-03-12T13:12:03.362Z,11.42
2023-03-12T13:13:04.189Z,11.33
2023-03-12T13:14:05.029Z,11.28
2023-03-12T13:15:05.878Z,11.23
2023-03-12T13:16:06.734Z,11.19
2023-03-12T13:17:07.607Z,11.13
2023-03-12T13:18:08.418Z,11.06
2023-03-12T13:19:09.261Z,11.03
2023-03-12T13:20:10.114Z,10.99
2023-03-12T13:21:10.917Z,10.98
2023-03-12T13:22:11.760Z,10.93
2023-03-12T13:23:12.586Z,10.91
2023-03-12T13:24:13.432Z,10.87
2023-03-12T13:25:14.268Z,10.86
2023-03-12T13:26:15.100Z,10.86
2023-03-12T13:27:15.960Z,10.80
2023-03-12T13:28:17.006Z,10.76
2023-03-12T13:29:18.052Z,10.73
2023-03-12T13:30:18.919Z,10.72
2023-03-12T13:31:19.847Z,10.73
2023-03-12T13:32:20.693Z,10.70
2023-03-12T13:33:21.514Z,10.69
2023-03-12T13:34:22.367Z,10.68
2023-03-12T13:35:23.196Z,10.66
2023-03-12T13:36:24.049Z,10.66
2023-03-12T13:37:24.869Z,10.63
2023-03-12T13:38:25.713Z,10.63
2023-03-12T13:39:26.609Z,10.60
2023-03-12T13:40:27.419Z,10.58
2023-03-12T13:41:29.530Z,10.52
2023-03-12T13:42:28.810Z,10.54
2023-03-12T13:43:29.651Z,10.55
2023-03-12T13:44:30.531Z,10.51
2023-03-12T13:45:31.366Z,10.51
2023-03-12T13:46:32.322Z,10.49
2023-03-12T13:47:33.168Z,10.49
2023-03-12T13:48:34.032Z,10.47
2023-03-12T13:49:34.887Z,10.44
2023-03-12T13:50:35.758Z,10.47
2023-03-12T13:51:36.600Z,10.49
2023-03-12T13:52:37.446Z,10.51
2023-03-12T13:53:40.488Z,10.47
2023-03-12T13:54:39.245Z,10.49
2023-03-12T13:55:40.144Z,10.44
2023-03-12T13:56:41.020Z,10.46
2023-03-12T13:57:41.860Z,10.42
2023-03-12T13:58:42.693Z,10.39
2023-03-12T13:59:43.533Z,10.44
2023-03-12T14:00:44.380Z,10.44
2023-03-12T14:01:45.374Z,10.49
2023-03-12T14:02:46.242Z,10.47
2023-03-12T14:03:47.076Z,10.46
2023-03-12T14:04:47.976Z,10.46
2023-03-12T14:05:48.839Z,10.43
2023-03-12T14:06:49.665Z,10.44
2023-03-12T14:07:50.501Z,10.44
2023-03-12T14:08:51.376Z,10.47
2023-03-12T14:09:52.210Z,10.47
2023-03-12T14:10:53.048Z,10.49
2023-03-12T14:11:53.898Z,10.49
2023-03-12T14:12:54.742Z,10.51
2023-03-12T14:13:55.577Z,10.51
2023-03-12T14:14:56.438Z,10.57
2023-03-12T14:15:57.337Z,10.52
2023-03-12T14:16:58.195Z,10.54
2023-03-12T14:17:59.020Z,10.51
2023-03-12T14:18:59.844Z,10.49
2023-03-12T14:20:00.680Z,10.46
2023-03-12T14:21:01.540Z,10.46
2023-03-12T14:22:02.397Z,10.42
2023-03-12T14:23:03.206Z,10.43
2023-03-12T14:24:04.059Z,10.44
2023-03-12T14:25:04.948Z,10.44
2023-03-12T14:26:05.790Z,10.44
2023-03-12T14:27:06.659Z,10.44
2023-03-12T14:28:07.486Z,10.43
2023-03-12T14:29:08.346Z,10.43
2023-03-12T14:30:09.247Z,10.43
2023-03-12T14:31:10.225Z,10.43
2023-03-12T14:32:11.126Z,10.38
2023-03-12T14:33:11.962Z,10.38
2023-03-12T14:34:12.810Z,10.38
2023-03-12T14:35:14.279Z,10.35
2023-03-12T14:36:14.516Z,10.36
2023-03-12T14:37:15.525Z,10.39
2023-03-12T14:38:16.405Z,10.44
2023-03-12T14:39:17.245Z,10.52
2023-03-12T14:40:18.078Z,10.54
2023-03-12T14:41:18.901Z,10.49
2023-03-12T14:42:19.748Z,10.52
2023-03-12T14:43:20.624Z,10.52
2023-03-12T14:44:21.448Z,10.49
2023-03-12T14:45:22.304Z,10.51
2023-03-12T14:46:23.278Z,10.52
2023-03-12T14:47:24.194Z,10.57
2023-03-12T14:48:25.011Z,10.57
2023-03-12T14:49:25.854Z,10.57
2023-03-12T14:50:26.801Z,10.58
2023-03-12T14:51:27.769Z,10.57
2023-03-12T14:52:28.642Z,10.58
2023-03-12T14:53:29.490Z,10.63
2023-03-12T14:54:30.343Z,10.63
2023-03-12T14:55:31.167Z,10.65
2023-03-12T14:56:32.024Z,10.68
2023-03-12T14:57:32.870Z,10.68
2023-03-12T14:58:33.708Z,10.63
2023-03-12T14:59:34.576Z,10.63
2023-03-12T15:00:35.454Z,10.60
2023-03-12T15:01:36.380Z,10.55
2023-03-12T15:02:37.205Z,10.55
2023-03-12T15:03:38.025Z,10.54
2023-03-12T15:04:38.947Z,10.54
2023-03-12T15:05:39.800Z,10.52
2023-03-12T15:06:40.689Z,10.57
2023-03-12T15:07:41.537Z,10.58
2023-03-12T15:08:42.380Z,10.62
2023-03-12T15:09:43.224Z,10.68
2023-03-12T15:10:44.097Z,10.66
2023-03-12T15:11:44.923Z,10.66
2023-03-12T15:12:45.762Z,10.68
2023-03-12T15:13:46.644Z,10.68
2023-03-12T15:14:47.463Z,10.72
2023-03-12T15:15:48.329Z,10.72
2023-03-12T15:16:49.162Z,10.75
2023-03-12T15:17:50.004Z,10.78
2023-03-12T15:18:50.843Z,10.76
2023-03-12T15:19:51.675Z,10.75
2023-03-12T15:20:52.495Z,10.73
2023-03-12T15:21:53.351Z,10.69
2023-03-12T15:22:54.187Z,10.69
2023-03-12T15:23:55.009Z,10.65
2023-03-12T15:24:55.838Z,10.63
2023-03-12T15:25:56.685Z,10.62
2023-03-12T15:26:57.550Z,10.58
2023-03-12T15:27:58.381Z,10.57
2023-03-12T15:28:59.239Z,10.55
2023-03-12T15:30:00.050Z,10.55
2023-03-12T15:31:00.932Z,10.55
2023-03-12T15:32:01.569Z,10.60
2023-03-12T15:33:02.630Z,10.60
2023-03-12T15:34:03.517Z,10.62
2023-03-12T15:35:04.043Z,10.62
2023-03-12T15:36:05.026Z,10.60
2023-03-12T15:37:05.958Z,10.63
2023-03-12T15:38:06.799Z,10.65
2023-03-12T15:39:07.646Z,10.65
2023-03-12T15:40:08.455Z,10.65
2023-03-12T15:41:09.305Z,10.63
2023-03-12T15:42:10.237Z,10.66
2023-03-12T15:43:11.136Z,10.66
2023-03-12T15:44:12.002Z,10.69
2023-03-12T15:45:12.812Z,10.70
2023-03-12T15:46:13.764Z,10.72
2023-03-12T15:47:14.669Z,10.75
2023-03-12T15:48:15.490Z,10.80
2023-03-12T15:49:16.326Z,10.87
2023-03-12T15:50:17.172Z,10.88
2023-03-12T15:51:17.997Z,10.88
2023-03-12T15:52:18.875Z,10.88
2023-03-12T15:53:19.722Z,10.86
2023-03-12T15:54:20.550Z,10.86
2023-03-12T15:55:21.370Z,10.81
2023-03-12T15:56:22.231Z,10.80
2023-03-12T15:57:23.072Z,10.81
2023-03-12T15:58:24.063Z,10.76
2023-03-12T15:59:24.885Z,10.78
2023-03-12T16:00:25.723Z,10.81
2023-03-12T16:01:26.575Z,10.88
2023-03-12T16:02:27.446Z,10.91
2023-03-12T16:03:28.264Z,10.88
2023-03-12T16:04:29.119Z,10.91
2023-03-12T16:05:29.950Z,10.88
2023-03-12T16:06:30.788Z,10.88
2023-03-12T16:07:31.598Z,10.87
2023-03-12T16:08:32.443Z,10.86
2023-03-12T16:09:33.269Z,10.83
2023-03-12T16:10:34.092Z,10.81
2023-03-12T16:11:35.035Z,10.80
2023-03-12T16:12:35.834Z,10.75
2023-03-12T16:13:36.667Z,10.72
2023-03-12T16:14:37.495Z,10.72
2023-03-12T16:15:38.336Z,10.69
2023-03-12T16:16:39.220Z,10.69
2023-03-12T16:17:40.040Z,10.73
2023-03-12T16:18:40.875Z,10.73
2023-03-12T16:19:41.753Z,10.73
2023-03-12T16:20:42.602Z,10.76
2023-03-12T16:21:43.457Z,10.78
2023-03-12T16:22:44.292Z,10.80
2023-03-12T16:23:45.133Z,10.78
2023-03-12T16:24:45.960Z,10.80
2023-03-12T16:25:46.794Z,10.83
2023-03-12T16:26:47.642Z,10.84
2023-03-12T16:27:48.476Z,10.81
2023-03-12T16:28:49.325Z,10.83
2023-03-12T16:29:50.158Z,10.84
2023-03-12T16:30:51.018Z,10.84
2023-03-12T16:31:51.916Z,10.81
2023-03-12T16:32:52.828Z,10.80
2023-03-12T16:33:53.763Z,10.78
2023-03-12T16:34:54.601Z,10.75
2023-03-12T16:35:55.974Z,10.69
2023-03-12T16:36:56.752Z,10.66
2023-03-12T16:37:57.028Z,10.65
2023-03-12T16:38:57.954Z,10.60
2023-03-12T16:39:58.919Z,10.57
2023-03-12T16:41:00.253Z,10.55
2023-03-12T16:42:00.518Z,10.49
2023-03-12T16:43:01.338Z,10.44
2023-03-12T16:44:02.162Z,10.39
2023-03-12T16:45:03.048Z,10.36
2023-03-12T16:46:04.029Z,10.34
2023-03-12T16:47:04.987Z,10.32
2023-03-12T16:48:05.801Z,10.31
2023-03-12T16:49:06.645Z,10.25
2023-03-12T16:50:07.536Z,10.24
2023-03-12T16:51:08.380Z,10.24
2023-03-12T16:52:09.247Z,10.22
2023-03-12T16:53:10.086Z,10.18
2023-03-12T16:54:12.161Z,10.20
2023-03-12T16:55:12.314Z,10.20
2023-03-12T16:56:12.536Z,10.20
2023-03-12T16:57:13.373Z,10.22
2023-03-12T16:58:14.218Z,10.20
2023-03-12T16:59:15.888Z,10.22
2023-03-12T17:00:15.608Z,10.20
2023-03-12T17:01:16.483Z,10.22
2023-03-12T17:02:17.341Z,10.18
2023-03-12T17:03:18.240Z,10.16
2023-03-12T17:04:19.120Z,10.16
2023-03-12T17:05:19.956Z,10.16
2023-03-12T17:06:20.788Z,10.11
2023-03-12T17:07:21.646Z,10.10
2023-03-12T17:08:22.492Z,10.07
2023-03-12T17:09:23.420Z,10.04
2023-03-12T17:10:24.256Z,10.06
2023-03-12T17:11:25.135Z,10.07
2023-03-12T17:12:25.958Z,10.10
2023-03-12T17:13:26.804Z,10.13
2023-03-12T17:14:27.650Z,10.16
2023-03-12T17:15:28.519Z,10.16
2023-03-12T17:16:29.410Z,10.14
2023-03-12T17:17:30.257Z,10.20
2023-03-12T17:18:31.094Z,10.25
2023-03-12T17:19:31.931Z,10.24
2023-03-12T17:20:32.767Z,10.28
2023-03-12T17:21:33.615Z,10.28
2023-03-12T17:22:34.476Z,10.28
2023-03-12T17:23:35.301Z,10.31
2023-03-12T17:24:36.190Z,10.31
2023-03-12T17:25:37.829Z,10.34
2023-03-12T17:26:38.083Z,10.35
2023-03-12T17:27:38.898Z,10.34
2023-03-12T17:28:39.784Z,10.32
2023-03-12T17:29:40.616Z,10.32
2023-03-12T17:30:41.661Z,10.26
2023-03-12T17:31:41.984Z,10.25
2023-03-12T17:32:42.974Z,10.25
2023-03-12T17:33:43.852Z,10.22
2023-03-12T17:34:44.691Z,10.20
2023-03-12T17:35:45.601Z,10.22
2023-03-12T17:36:46.468Z,10.16
2023-03-12T17:37:47.297Z,10.22
2023-03-12T17:38:50.722Z,10.17
2023-03-12T17:39:48.891Z,10.16
2023-03-12T17:40:49.683Z,10.16
2023-03-12T17:41:50.539Z,10.09
2023-03-12T17:42:51.379Z,10.04
2023-03-12T17:43:52.216Z,10.01
2023-03-12T17:44:53.034Z,9.95
2023-03-12T17:45:53.883Z,9.91
2023-03-12T17:46:59.736Z,9.88
2023-03-12T17:47:55.213Z,9.86
2023-03-12T17:48:56.030Z,9.80
2023-03-12T17:49:56.840Z,9.80
2023-03-12T17:50:57.631Z,9.77
2023-03-12T17:51:58.466Z,9.73
2023-03-12T17:52:59.316Z,9.73
2023-03-12T17:54:00.155Z,9.67
2023-03-12T17:55:00.975Z,9.63
2023-03-12T17:56:01.810Z,9.60
2023-03-12T17:57:02.631Z,9.58
2023-03-12T17:58:03.458Z,9.53
2023-03-12T17:59:04.276Z,9.50
2023-03-12T18:00:05.110Z,9.49
2023-03-12T18:01:05.936Z,9.44
2023-03-12T18:02:06.781Z,9.40
2023-03-12T18:03:07.582Z,9.41
2023-03-12T18:04:08.390Z,9.38
2023-03-12T18:05:09.284Z,9.38
2023-03-12T18:06:10.132Z,9.42
2023-03-12T18:07:10.964Z,9.44
2023-03-12T18:08:11.801Z,9.41
2023-03-12T18:09:12.608Z,9.41
2023-03-12T18:10:13.440Z,9.41
2023-03-12T18:11:14.230Z,9.41
2023-03-12T18:12:15.102Z,9.44
2023-03-12T18:13:15.921Z,9.45
2023-03-12T18:14:16.716Z,9.45
2023-03-12T18:15:17.551Z,9.48
2023-03-12T18:16:18.471Z,9.49
2023-03-12T18:17:19.308Z,9.48
2023-03-12T18:18:20.116Z,9.48
2023-03-12T18:19:20.934Z,9.45
2023-03-12T18:20:32.459Z,9.44
2023-03-12T18:21:22.298Z,9.42
2023-03-12T18:22:23.156Z,9.40
2023-03-12T18:23:24.004Z,9.41
2023-03-12T18:24:24.863Z,9.40
2023-03-12T18:25:25.731Z,9.40
2023-03-12T18:26:26.566Z,9.41
2023-03-12T18:27:27.379Z,9.40
2023-03-12T18:28:28.211Z,9.41
2023-03-12T18:29:29.037Z,9.41
2023-03-12T18:30:29.847Z,9.41
2023-03-12T18:31:30.754Z,9.42
2023-03-12T18:32:31.708Z,9.42
2023-03-12T18:33:32.509Z,9.42
2023-03-12T18:34:33.405Z,9.41
2023-03-12T18:35:34.243Z,9.41
2023-03-12T18:36:35.112Z,9.42
2023-03-12T18:37:35.919Z,9.44
2023-03-12T18:38:36.729Z,9.42
2023-03-12T18:39:37.560Z,9.44
2023-03-12T18:40:38.385Z,9.42
2023-03-12T18:41:41.722Z,9.42
2023-03-12T18:42:39.874Z,9.42
2023-03-12T18:43:40.678Z,9.40
2023-03-12T18:44:41.537Z,9.44
2023-03-12T18:45:42.363Z,9.45
2023-03-12T18:46:43.029Z,9.48
2023-03-12T18:47:43.884Z,9.49
2023-03-12T18:48:44.726Z,9.49
2023-03-12T18:49:45.640Z,9.49
2023-03-12T18:50:46.449Z,9.50
2023-03-12T18:51:47.660Z,9.53
2023-03-12T18:52:47.889Z,9.55
2023-03-12T18:53:48.725Z,9.53
2023-03-12T18:54:49.542Z,9.53
2023-03-12T18:55:50.351Z,9.53
2023-03-12T18:56:51.188Z,9.55
2023-03-12T18:57:52.016Z,9.53
2023-03-12T18:58:52.826Z,9.56
2023-03-12T18:59:53.648Z,9.58
2023-03-12T19:00:54.467Z,9.60
2023-03-12T19:01:55.357Z,9.58
2023-03-12T19:02:56.263Z,9.58
2023-03-12T19:03:57.171Z,9.58
2023-03-12T19:04:57.970Z,9.58
2023-03-12T19:05:58.789Z,9.56
2023-03-12T19:06:59.603Z,9.58
2023-03-12T19:08:00.420Z,9.58
2023-03-12T19:09:01.287Z,9.56
2023-03-12T19:10:02.108Z,9.56
2023-03-12T19:11:02.957Z,9.55
2023-03-12T19:12:03.801Z,9.53
2023-03-12T19:13:04.619Z,9.53
2023-03-12T19:14:05.433Z,9.52
2023-03-12T19:15:06.247Z,9.50
2023-03-12T19:16:07.091Z,9.48
2023-03-12T19:17:07.899Z,9.45
2023-03-12T19:18:08.716Z,9.45
2023-03-12T19:19:09.522Z,9.48
2023-03-12T19:20:10.324Z,9.45
2023-03-12T19:21:11.143Z,9.45
2023-03-12T19:22:11.961Z,9.44
2023-03-12T19:23:12.834Z,9.44
2023-03-12T19:24:13.704Z,9.42
2023-03-12T19:25:14.511Z,9.42
2023-03-12T19:26:15.315Z,9.44
2023-03-12T19:27:16.141Z,9.44
2023-03-12T19:28:16.958Z,9.44
2023-03-12T19:29:17.778Z,9.48
2023-03-12T19:30:18.664Z,9.49
2023-03-12T19:31:19.616Z,9.49
2023-03-12T19:32:21.933Z,9.49
2023-03-12T19:33:21.301Z,9.49
2023-03-12T19:34:22.166Z,9.50
2023-03-12T19:35:23.032Z,9.53
2023-03-12T19:36:23.849Z,9.55
2023-03-12T19:37:24.687Z,9.55
2023-03-12T19:38:25.497Z,9.56
2023-03-12T19:39:26.303Z,9.59
2023-03-12T19:40:27.114Z,9.59
2023-03-12T19:41:27.943Z,9.60
2023-03-12T19:42:28.760Z,9.60
2023-03-12T19:43:29.591Z,9.56
2023-03-12T19:44:30.404Z,9.56
2023-03-12T19:45:31.319Z,9.56
2023-03-12T19:46:32.148Z,9.56
2023-03-12T19:47:32.994Z,9.53
2023-03-12T19:48:33.828Z,9.52
2023-03-12T19:49:34.646Z,9.49
2023-03-12T19:50:35.577Z,9.49
2023-03-12T19:51:36.401Z,9.45
2023-03-12T19:52:37.248Z,9.42
2023-03-12T19:53:38.043Z,9.41
2023-03-12T19:54:38.852Z,9.37
2023-03-12T19:55:39.745Z,9.38
2023-03-12T19:56:40.599Z,9.38
2023-03-12T19:57:41.426Z,9.38
2023-03-12T19:58:42.248Z,9.35
2023-03-12T19:59:43.070Z,9.35
2023-03-12T20:00:43.945Z,9.35
2023-03-12T20:01:44.830Z,9.37
2023-03-12T20:02:45.872Z,9.34
2023-03-12T20:03:46.216Z,9.34
2023-03-12T20:04:47.043Z,9.34
2023-03-12T20:05:47.890Z,9.35
2023-03-12T20:06:48.747Z,9.35
2023-03-12T20:07:49.665Z,9.35
2023-03-12T20:08:50.537Z,9.37
2023-03-12T20:09:51.349Z,9.34
2023-03-12T20:10:52.163Z,9.34
2023-03-12T20:11:53.118Z,9.35
2023-03-12T20:12:54.737Z,9.32
2023-03-12T20:13:55.062Z,9.31
2023-03-12T20:14:56.008Z,9.31
2023-03-12T20:15:56.914Z,9.27
2023-03-12T20:16:57.770Z,9.24
2023-03-12T20:17:58.732Z,9.24
2023-03-12T20:18:59.558Z,9.24
2023-03-12T20:20:00.536Z,9.24
2023-03-12T20:21:01.371Z,9.23
2023-03-12T20:22:02.247Z,9.23
2023-03-12T20:23:03.169Z,9.23
2023-03-12T20:24:04.104Z,9.20
2023-03-12T20:25:04.958Z,9.20
2023-03-12T20:26:05.904Z,9.20
2023-03-12T20:27:06.820Z,9.20
2023-03-12T20:28:07.801Z,9.20
2023-03-12T20:29:08.666Z,9.20
2023-03-12T20:30:09.512Z,9.20
2023-03-12T20:31:10.421Z,9.19
2023-03-12T20:32:11.428Z,9.20
2023-03-12T20:33:12.856Z,9.17
2023-03-12T20:34:13.789Z,9.17
2023-03-12T20:35:14.857Z,9.17
2023-03-12T20:36:15.212Z,9.15
2023-03-12T20:37:16.056Z,9.15
2023-03-12T20:38:16.937Z,9.15
2023-03-12T20:39:17.741Z,9.13
2023-03-12T20:40:18.561Z,9.13
2023-03-12T20:41:19.370Z,9.10
2023-03-12T20:42:20.233Z,9.12
2023-03-12T20:43:21.028Z,9.08
2023-03-12T20:44:21.990Z,9.06
2023-03-12T20:45:22.841Z,9.04
2023-03-12T20:46:23.884Z,9.06
2023-03-12T20:47:24.221Z,9.04
2023-03-12T20:48:25.055Z,9.04
2023-03-12T20:49:25.930Z,9.01
2023-03-12T20:50:26.767Z,9.01
2023-03-12T20:51:27.610Z,9.00
2023-03-12T20:52:28.437Z,9.00
2023-03-12T20:53:29.275Z,8.98
2023-03-12T20:54:30.096Z,8.98
2023-03-12T20:55:30.905Z,8.98
2023-03-12T20:56:31.785Z,8.98
2023-03-12T20:57:32.591Z,9.00
2023-03-12T20:58:33.413Z,8.97
2023-03-12T20:59:34.232Z,8.98
2023-03-12T21:00:35.075Z,8.96
2023-03-12T21:01:35.954Z,8.97
2023-03-12T21:02:36.824Z,8.96
2023-03-12T21:03:37.661Z,8.96
2023-03-12T21:04:38.510Z,8.94
2023-03-12T21:05:39.337Z,8.94
2023-03-12T21:06:40.171Z,8.96
2023-03-12T21:07:40.989Z,8.93
2023-03-12T21:08:41.829Z,8.89
2023-03-12T21:09:42.657Z,8.89
2023-03-12T21:10:43.481Z,8.88
2023-03-12T21:11:44.585Z,8.86
2023-03-12T21:12:44.808Z,8.86
2023-03-12T21:13:45.632Z,8.88
2023-03-12T21:14:46.492Z,8.85
2023-03-12T21:15:47.321Z,8.83
2023-03-12T21:16:48.267Z,8.82
2023-03-12T21:17:49.109Z,8.79
2023-03-12T21:18:49.981Z,8.79
2023-03-12T21:19:50.786Z,8.78
2023-03-12T21:20:51.611Z,8.78
2023-03-12T21:21:52.435Z,8.78
2023-03-12T21:22:53.258Z,8.75
2023-03-12T21:23:54.134Z,8.76
2023-03-12T21:24:54.975Z,8.75
2023-03-12T21:25:55.839Z,8.73
2023-03-12T21:26:56.655Z,8.73
2023-03-12T21:27:57.511Z,8.73
2023-03-12T21:28:58.349Z,8.73
2023-03-12T21:29:59.202Z,8.73
2023-03-12T21:31:00.123Z,8.73
2023-03-12T21:32:01.347Z,8.71
2023-03-12T21:33:02.112Z,8.70
2023-03-12T21:34:02.368Z,8.68
2023-03-12T21:35:03.212Z,8.68
2023-03-12T21:36:04.113Z,8.68
2023-03-12T21:37:05.041Z,8.68
2023-03-12T21:38:05.957Z,8.68
2023-03-12T21:39:06.775Z,8.70
2023-03-12T21:40:07.595Z,8.67
2023-03-12T21:41:08.475Z,8.68
2023-03-12T21:42:09.314Z,8.70
2023-03-12T21:43:10.185Z,8.70
2023-03-12T21:44:11.035Z,8.73
2023-03-12T21:45:11.860Z,8.71
2023-03-12T21:46:12.766Z,8.73
2023-03-12T21:47:13.616Z,8.71
2023-03-12T21:48:14.468Z,8.71
2023-03-12T21:49:15.316Z,8.71
2023-03-12T21:50:16.175Z,8.70
2023-03-12T21:51:17.003Z,8.73
2023-03-12T21:52:17.829Z,8.71
2023-03-12T21:53:23.816Z,8.70
2023-03-12T21:54:19.182Z,8.73
2023-03-12T21:55:20.031Z,8.70
2023-03-12T21:56:20.886Z,8.70
2023-03-12T21:57:21.696Z,8.68
2023-03-12T21:58:22.522Z,8.70
2023-03-12T21:59:23.393Z,8.70
2023-03-12T22:00:24.207Z,8.71
2023-03-12T22:01:25.227Z,8.68
2023-03-12T22:02:27.981Z,8.73
2023-03-12T22:03:26.588Z,8.76
2023-03-12T22:04:27.443Z,8.78
2023-03-12T22:05:28.268Z,8.76
2023-03-12T22:06:29.085Z,8.79
2023-03-12T22:07:30.047Z,8.80
2023-03-12T22:08:30.863Z,8.79
2023-03-12T22:09:31.716Z,8.80
2023-03-12T22:10:32.540Z,8.85
2023-03-12T22:11:33.380Z,8.85
2023-03-12T22:12:34.231Z,8.83
2023-03-12T22:13:35.042Z,8.85
2023-03-12T22:14:35.865Z,8.85
2023-03-12T22:15:37.728Z,8.85
2023-03-12T22:16:37.413Z,8.85
2023-03-12T22:17:38.265Z,8.85
2023-03-12T22:18:39.094Z,8.86
2023-03-12T22:19:42.009Z,8.88
2023-03-12T22:20:40.584Z,8.85
2023-03-12T22:21:41.522Z,8.83
2023-03-12T22:22:42.368Z,8.83
2023-03-12T22:23:43.178Z,8.86
2023-03-12T22:24:44.040Z,8.85
2023-03-12T22:25:44.885Z,8.83
2023-03-12T22:26:45.721Z,8.85
2023-03-12T22:27:46.556Z,8.82
2023-03-12T22:28:47.470Z,8.80
2023-03-12T22:29:48.266Z,8.80
2023-03-12T22:30:49.110Z,8.79
2023-03-12T22:31:49.971Z,8.76
2023-03-12T22:32:50.929Z,8.75
2023-03-12T22:33:51.764Z,8.75
2023-03-12T22:34:52.616Z,8.71
2023-03-12T22:35:53.493Z,8.71
2023-03-12T22:36:54.355Z,8.68
2023-03-12T22:37:55.177Z,8.68
2023-03-12T22:38:55.998Z,8.65
2023-03-12T22:39:56.859Z,8.73
2023-03-12T22:40:57.726Z,8.73
2023-03-12T22:41:58.587Z,8.79
2023-03-12T22:42:59.413Z,8.79
2023-03-12T22:44:00.200Z,8.79
2023-03-12T22:45:01.032Z,8.80
2023-03-12T22:46:01.859Z,8.79
2023-03-12T22:47:02.712Z,8.79
2023-03-12T22:48:03.526Z,8.79
2023-03-12T22:49:04.356Z,8.83
2023-03-12T22:50:05.199Z,8.85
2023-03-12T22:51:06.015Z,8.82
2023-03-12T22:52:06.894Z,8.85
2023-03-12T22:53:07.713Z,8.88
2023-03-12T22:54:08.606Z,8.89
2023-03-12T22:55:10.312Z,8.93
2023-03-12T22:56:10.758Z,8.98
2023-03-12T22:57:11.025Z,9.00
2023-03-12T22:58:11.843Z,9.04
2023-03-12T22:59:12.696Z,9.08
2023-03-12T23:00:13.547Z,9.12
2023-03-12T23:01:14.354Z,9.17
2023-03-12T23:02:15.293Z,9.17
2023-03-12T23:03:16.156Z,9.16
2023-03-12T23:04:17.035Z,9.12
2023-03-12T23:05:17.887Z,9.12
2023-03-12T23:06:18.820Z,9.10
2023-03-12T23:07:19.757Z,9.08
2023-03-12T23:08:20.631Z,9.06
2023-03-12T23:09:21.455Z,9.03
2023-03-12T23:10:22.322Z,9.00
2023-03-12T23:11:23.120Z,8.98
2023-03-12T23:12:23.942Z,8.98
